Time;durP1;ratioP1;P1;durP2;ratioP2;P2;SDS_P1;SDS_P2;PMS_P1;PMS_P2;Temp;Humidity;BMP_temperature;BMP_pressure;BME280_temperature;BME280_humidity;BME280_pressure;Samples;Min_cycle;Max_cycle;Signal;HPM_P1;HPM_P2
2023/08/15 13:33:28;;;;;;;7.20;4.03;;;;;;;;;;4990164;27;91261;-48
2023/08/15 13:36:28;;;;;;;7.95;5.32;;;;;;;;;;2053896;27;20637;-50
2023/08/15 13:40:23;;;;;;;7.43;4.20;;;;;;;;;;6113012;27;20647;-48
2023/08/15 13:43:26;;;;;;;8.02;4.03;;;;;;;;;;6180353;28;20058;-51
2023/08/15 13:46:28;;;;;;;6.57;4.05;;;;;;;;;;6184731;28;20038;-50
2023/08/15 13:49:30;;;;;;;10.45;6.40;;;;;;;;;;6181826;28;20440;-57
2023/08/15 13:52:33;;;;;;;7.97;5.35;;;;;;;;;;6177191;28;20051;-49
2023/08/15 14:01:32;;;;;;;7.75;5.60;;;;;;;;;;6165405;28;20039;-49
2023/08/15 14:28:21;;;;;;;11.18;8.00;;;;;;;;;;6177478;27;20511;-78
2023/08/15 14:31:24;;;;;;;7.65;6.28;;;;;;;;;;6218038;28;92980;-78
2023/08/15 14:34:26;;;;;;;8.73;6.03;;;;;;;;;;6242607;28;20052;-78
2023/08/15 14:37:28;;;;;;;9.27;6.60;;;;;;;;;;6258546;28;20040;-78
2023/08/15 14:40:31;;;;;;;15.88;10.18;;;;;;;;;;6248244;28;20047;-78
2023/08/15 14:43:36;;;;;;;9.38;6.95;;;;;;;;;;6237769;28;20175;-79
2023/08/15 14:46:38;;;;;;;9.35;6.25;;;;;;;;;;6273896;28;20084;-78
2023/08/15 14:49:40;;;;;;;10.68;7.40;;;;;;;;;;6260389;28;20045;-77
2023/08/15 14:52:43;;;;;;;9.52;5.95;;;;;;;;;;6251669;28;20049;-78
2023/08/15 14:55:46;;;;;;;11.55;6.35;;;;;;;;;;6260116;28;20045;-78
2023/08/15 14:58:49;;;;;;;9.68;6.28;;;;;;;;;;6279769;28;20106;-77
2023/08/15 15:01:51;;;;;;;16.67;6.13;;;;;;;;;;6243674;28;20587;-78
2023/08/15 15:04:54;;;;;;;8.27;6.38;;;;;;;;;;6259571;28;20114;-78
2023/08/15 15:07:56;;;;;;;8.80;6.63;;;;;;;;;;6245683;28;20060;-78
2023/08/15 15:10:58;;;;;;;9.82;6.97;;;;;;;;;;6258467;28;20544;-77
2023/08/15 15:14:02;;;;;;;11.57;7.35;;;;;;;;;;6258757;28;20052;-78
2023/08/15 15:17:04;;;;;;;7.60;6.20;;;;;;;;;;6244193;28;20171;-78
2023/08/15 15:20:07;;;;;;;11.07;7.10;;;;;;;;;;6235328;28;20056;-78
2023/08/15 15:23:09;;;;;;;10.55;6.28;;;;;;;;;;6272810;28;20052;-78
2023/08/15 15:26:11;;;;;;;15.18;7.85;;;;;;;;;;6277199;28;20124;-78
2023/08/15 15:29:15;;;;;;;17.83;10.73;;;;;;;;;;6263119;28;20528;-78
2023/08/15 15:32:17;;;;;;;13.30;8.13;;;;;;;;;;6259880;28;20076;-78
2023/08/15 15:35:20;;;;;;;9.27;6.80;;;;;;;;;;6242367;28;20037;-77
2023/08/15 15:38:23;;;;;;;15.75;9.55;;;;;;;;;;6264009;28;20057;-78
2023/08/15 15:41:25;;;;;;;10.57;7.57;;;;;;;;;;6242838;28;20645;-78
2023/08/15 15:44:29;;;;;;;36.05;17.40;;;;;;;;;;6247958;28;20095;-78
2023/08/15 15:47:32;;;;;;;9.02;7.10;;;;;;;;;;6248653;28;20624;-77
2023/08/15 15:50:34;;;;;;;12.52;8.02;;;;;;;;;;6225933;28;20053;-77
2023/08/15 15:53:36;;;;;;;14.25;7.80;;;;;;;;;;6253501;28;20418;-77
2023/08/15 15:56:40;;;;;;;10.93;7.80;;;;;;;;;;6231619;28;20053;-80
2023/08/15 15:59:42;;;;;;;17.40;11.15;;;;;;;;;;6240810;28;20064;-78
2023/08/15 16:02:44;;;;;;;15.02;9.15;;;;;;;;;;6248090;28;20128;-77
2023/08/15 16:05:46;;;;;;;28.20;12.68;;;;;;;;;;6244177;28;20042;-76
2023/08/15 16:08:48;;;;;;;12.57;7.53;;;;;;;;;;6245734;28;20136;-64
2023/08/15 16:11:50;;;;;;;21.30;11.32;;;;;;;;;;6236980;28;20045;-64
2023/08/15 16:14:52;;;;;;;10.73;6.90;;;;;;;;;;6242746;28;20053;-65
2023/08/15 16:17:54;;;;;;;10.82;8.05;;;;;;;;;;6239185;28;20037;-64
2023/08/15 16:20:56;;;;;;;10.93;8.32;;;;;;;;;;6248878;28;20564;-65
2023/08/15 16:23:58;;;;;;;11.90;8.07;;;;;;;;;;6244383;28;20049;-64
2023/08/15 16:27:01;;;;;;;10.55;7.43;;;;;;;;;;6243135;28;20053;-64
2023/08/15 16:30:03;;;;;;;10.20;8.20;;;;;;;;;;6244176;28;20048;-64
2023/08/15 16:48:37;;;;;;;12.88;11.68;;;;;;;;;;6281681;27;20738;-64
2023/08/15 16:51:40;;;;;;;16.30;10.85;;;;;;;;;;6252040;27;20128;-65
2023/08/15 16:54:43;;;;;;;11.93;10.32;;;;;;;;;;6268136;27;20041;-64
2023/08/15 16:57:46;;;;;;;13.68;10.07;;;;;;;;;;6277684;27;20054;-65
2023/08/15 17:00:48;;;;;;;11.80;10.68;;;;;;;;;;6271235;27;20047;-65
2023/08/15 17:03:50;;;;;;;13.73;10.73;;;;;;;;;;6254114;27;20039;-65
2023/08/15 17:06:53;;;;;;;11.65;10.40;;;;;;;;;;6281691;27;20090;-65
2023/08/15 17:09:57;;;;;;;12.43;11.18;;;;;;;;;;6244087;28;20073;-64
2023/08/15 17:12:59;;;;;;;12.40;11.13;;;;;;;;;;6255070;27;20047;-65
2023/08/15 17:16:01;;;;;;;14.43;11.00;;;;;;;;;;6293324;27;20041;-65
2023/08/15 17:19:03;;;;;;;13.98;11.15;;;;;;;;;;6265458;27;20023;-65
2023/08/15 17:22:05;;;;;;;12.20;8.95;;;;;;;;;;6262695;27;20519;-65
2023/08/15 17:25:08;;;;;;;15.23;13.35;;;;;;;;;;6267563;27;20562;-66
2023/08/15 17:28:10;;;;;;;11.55;9.80;;;;;;;;;;6251617;27;20420;-64
2023/08/15 17:31:14;;;;;;;12.85;8.63;;;;;;;;;;6328696;27;20503;-65
2023/08/15 17:34:17;;;;;;;13.02;10.68;;;;;;;;;;6261271;27;20047;-65
2023/08/15 17:37:19;;;;;;;12.15;11.05;;;;;;;;;;6254196;27;20049;-65
2023/08/15 17:40:21;;;;;;;9.82;7.82;;;;;;;;;;6239844;27;20524;-66
2023/08/15 17:43:23;;;;;;;12.13;8.45;;;;;;;;;;6309649;27;20513;-65
2023/08/15 17:46:26;;;;;;;9.98;8.32;;;;;;;;;;6244949;28;20746;-65
2023/08/15 17:49:28;;;;;;;12.00;10.75;;;;;;;;;;6226508;28;20534;-65
2023/08/15 17:52:30;;;;;;;16.30;14.68;;;;;;;;;;6295969;27;20047;-66
2023/08/15 17:55:32;;;;;;;15.32;9.75;;;;;;;;;;6289423;27;20673;-66
2023/08/15 17:58:50;;;;;;;14.82;12.10;;;;;;;;;;6253991;27;20048;-65
2023/08/15 18:01:53;;;;;;;12.93;11.52;;;;;;;;;;6264641;27;20049;-66
2023/08/15 18:04:55;;;;;;;13.05;11.77;;;;;;;;;;6272501;27;20091;-66
2023/08/15 18:07:57;;;;;;;12.52;11.15;;;;;;;;;;6256865;27;20071;-66
2023/08/15 18:10:59;;;;;;;15.57;12.73;;;;;;;;;;6225469;28;20041;-65
2023/08/15 18:14:01;;;;;;;12.70;11.13;;;;;;;;;;6274925;27;20062;-67
2023/08/15 18:17:03;;;;;;;12.63;11.40;;;;;;;;;;6266404;27;20750;-65
2023/08/15 18:20:06;;;;;;;15.43;13.95;;;;;;;;;;6269823;27;20052;-64
2023/08/15 18:23:08;;;;;;;13.73;11.48;;;;;;;;;;6268791;27;20087;-65
2023/08/15 18:26:10;;;;;;;18.45;11.65;;;;;;;;;;6290411;27;20136;-65
2023/08/15 18:29:12;;;;;;;13.52;11.38;;;;;;;;;;6253633;27;20049;-65
2023/08/15 18:32:14;;;;;;;15.23;11.10;;;;;;;;;;6239546;27;20095;-66
2023/08/15 18:35:16;;;;;;;14.68;12.55;;;;;;;;;;6255696;27;20035;-65
2023/08/15 18:38:20;;;;;;;15.10;12.13;;;;;;;;;;6238641;27;20045;-64
2023/08/15 18:41:22;;;;;;;13.90;12.55;;;;;;;;;;6269634;27;20041;-65
2023/08/15 18:44:24;;;;;;;15.27;11.50;;;;;;;;;;6262445;27;20057;-67
2023/08/15 18:47:26;;;;;;;12.90;11.68;;;;;;;;;;6260763;27;20051;-67
2023/08/15 18:50:28;;;;;;;12.45;10.80;;;;;;;;;;6247194;27;20155;-65
2023/08/15 18:53:30;;;;;;;12.35;11.15;;;;;;;;;;6244226;27;20041;-64
2023/08/15 18:56:32;;;;;;;12.82;11.52;;;;;;;;;;6285986;27;20041;-66
2023/08/15 18:59:35;;;;;;;12.88;11.57;;;;;;;;;;6284788;27;20061;-65
2023/08/15 19:02:37;;;;;;;14.15;11.63;;;;;;;;;;6294176;27;20253;-65
2023/08/15 19:05:46;;;;;;;13.23;11.90;;;;;;;;;;6256275;27;20143;-66
2023/08/15 19:08:48;;;;;;;14.68;11.95;;;;;;;;;;6274996;27;20067;-66
2023/08/15 19:11:50;;;;;;;14.20;12.73;;;;;;;;;;6270508;27;20045;-65
2023/08/15 19:14:55;;;;;;;18.20;14.52;;;;;;;;;;6288012;27;20515;-65
2023/08/15 19:17:57;;;;;;;15.90;12.80;;;;;;;;;;6244256;27;20041;-65
2023/08/15 19:20:59;;;;;;;13.77;11.70;;;;;;;;;;6284339;27;20065;-66
2023/08/15 19:24:02;;;;;;;19.50;9.82;;;;;;;;;;6274650;27;20491;-66
2023/08/15 19:27:04;;;;;;;12.75;11.32;;;;;;;;;;6263522;27;20056;-65
2023/08/15 19:30:07;;;;;;;14.52;13.05;;;;;;;;;;6240422;27;20057;-65
2023/08/15 19:33:09;;;;;;;14.65;13.20;;;;;;;;;;6274412;27;20056;-65
2023/08/15 19:36:12;;;;;;;14.00;12.57;;;;;;;;;;6274840;27;20056;-65
2023/08/15 19:39:14;;;;;;;13.73;12.27;;;;;;;;;;6283830;27;20095;-65
2023/08/15 19:42:16;;;;;;;14.63;12.75;;;;;;;;;;6235229;27;20041;-65
2023/08/15 19:45:18;;;;;;;18.85;12.48;;;;;;;;;;6294725;27;20038;-65
2023/08/15 19:48:20;;;;;;;15.23;12.90;;;;;;;;;;6259044;27;20041;-65
2023/08/15 19:51:22;;;;;;;13.30;12.00;;;;;;;;;;6227623;27;20075;-64
2023/08/15 19:54:25;;;;;;;14.45;12.65;;;;;;;;;;6294554;27;20055;-64
2023/08/15 19:57:27;;;;;;;16.88;15.20;;;;;;;;;;6245079;27;20056;-66
2023/08/15 20:00:30;;;;;;;15.43;11.80;;;;;;;;;;6250433;28;20792;-65
2023/08/15 20:03:32;;;;;;;14.25;12.75;;;;;;;;;;6292950;27;20092;-65
2023/08/15 20:06:34;;;;;;;14.90;13.45;;;;;;;;;;6252401;27;20042;-65
2023/08/15 20:09:37;;;;;;;14.20;12.77;;;;;;;;;;6229286;27;20227;-65
2023/08/15 20:12:39;;;;;;;15.82;12.80;;;;;;;;;;6267967;27;20200;-65
2023/08/15 20:15:42;;;;;;;17.45;15.85;;;;;;;;;;6245707;27;20123;-66
2023/08/15 20:18:44;;;;;;;14.70;13.07;;;;;;;;;;6270550;27;20098;-66
2023/08/15 20:21:47;;;;;;;14.93;13.27;;;;;;;;;;6290616;27;20158;-65
2023/08/15 20:24:50;;;;;;;16.92;10.93;;;;;;;;;;6252394;27;20551;-65
2023/08/15 20:27:52;;;;;;;17.52;13.43;;;;;;;;;;6273776;28;20045;-64
2023/08/15 20:30:54;;;;;;;13.10;11.90;;;;;;;;;;6260419;27;20045;-64
2023/08/15 20:33:58;;;;;;;14.77;13.27;;;;;;;;;;6245680;28;20049;-64
2023/08/15 20:37:00;;;;;;;14.15;12.55;;;;;;;;;;6267035;28;20095;-64
2023/08/15 20:40:04;;;;;;;18.00;12.90;;;;;;;;;;6259833;28;20121;-64
2023/08/15 20:43:06;;;;;;;15.70;14.15;;;;;;;;;;6250889;28;20038;-64
2023/08/15 20:46:08;;;;;;;15.20;11.00;;;;;;;;;;6307313;27;20545;-64
2023/08/15 20:49:11;;;;;;;18.60;13.73;;;;;;;;;;6252610;28;20141;-64
2023/08/15 20:52:13;;;;;;;15.48;13.25;;;;;;;;;;6231758;28;20823;-64
2023/08/15 20:55:15;;;;;;;14.88;12.70;;;;;;;;;;6288486;28;20051;-64
2023/08/15 20:58:17;;;;;;;13.45;10.68;;;;;;;;;;6269978;27;20512;-65
2023/08/15 21:01:23;;;;;;;16.42;13.85;;;;;;;;;;6287368;28;20049;-65
2023/08/15 21:04:25;;;;;;;15.02;13.50;;;;;;;;;;6247905;28;20050;-64
2023/08/15 21:07:27;;;;;;;14.00;12.57;;;;;;;;;;6223250;28;20049;-64
2023/08/15 21:10:30;;;;;;;15.00;13.05;;;;;;;;;;6211857;28;20067;-63
2023/08/15 21:13:32;;;;;;;14.90;13.43;;;;;;;;;;6232447;28;20050;-64
2023/08/15 21:16:34;;;;;;;18.95;14.23;;;;;;;;;;6222354;28;20037;-63
2023/08/15 21:19:36;;;;;;;14.43;12.43;;;;;;;;;;6255032;28;20167;-65
2023/08/15 21:22:42;;;;;;;13.65;10.50;;;;;;;;;;6224604;28;20698;-64
2023/08/15 21:25:45;;;;;;;15.95;12.57;;;;;;;;;;6293712;27;20057;-65
2023/08/15 21:28:47;;;;;;;15.48;13.07;;;;;;;;;;6246191;27;20431;-65
2023/08/15 21:31:49;;;;;;;15.23;13.68;;;;;;;;;;6263012;27;20055;-65
2023/08/15 21:34:52;;;;;;;15.35;13.73;;;;;;;;;;6276914;27;20057;-64
2023/08/15 21:37:54;;;;;;;14.55;13.02;;;;;;;;;;6239050;27;20033;-64
2023/08/15 21:40:56;;;;;;;15.85;14.25;;;;;;;;;;6227626;28;20057;-63
2023/08/15 21:43:58;;;;;;;16.85;14.07;;;;;;;;;;6250037;27;20043;-64
2023/08/15 21:47:00;;;;;;;15.13;13.73;;;;;;;;;;6343658;27;20573;-64
2023/08/15 21:50:03;;;;;;;13.88;12.50;;;;;;;;;;6275369;27;20049;-65
2023/08/15 21:53:05;;;;;;;14.10;12.70;;;;;;;;;;6236934;28;20088;-65
2023/08/15 21:56:07;;;;;;;16.13;13.23;;;;;;;;;;6261249;27;20060;-64
2023/08/15 21:59:09;;;;;;;14.48;12.98;;;;;;;;;;6260209;27;20038;-63
2023/08/15 22:02:11;;;;;;;14.50;13.10;;;;;;;;;;6236849;28;20049;-65
2023/08/15 22:05:13;;;;;;;17.48;12.65;;;;;;;;;;6246394;27;20058;-63
2023/08/15 22:08:15;;;;;;;16.15;14.35;;;;;;;;;;6236642;28;20519;-64
2023/08/15 22:11:18;;;;;;;16.05;14.63;;;;;;;;;;6247442;27;20051;-63
2023/08/15 22:14:23;;;;;;;14.98;13.50;;;;;;;;;;6237144;28;20768;-64
2023/08/15 22:17:26;;;;;;;16.13;12.93;;;;;;;;;;6223991;28;20083;-64
2023/08/15 22:20:45;;;;;;;15.00;13.55;;;;;;;;;;6297189;27;20051;-64
2023/08/15 22:23:48;;;;;;;16.88;15.13;;;;;;;;;;6237865;27;20082;-64
2023/08/15 22:26:50;;;;;;;15.68;14.18;;;;;;;;;;6260662;27;20145;-64
2023/08/15 22:29:52;;;;;;;16.17;10.80;;;;;;;;;;6345340;27;20459;-65
2023/08/15 22:32:54;;;;;;;17.42;14.45;;;;;;;;;;6260360;27;20045;-65
2023/08/15 22:35:56;;;;;;;15.02;12.20;;;;;;;;;;6291411;27;20449;-64
2023/08/15 22:38:58;;;;;;;16.27;14.57;;;;;;;;;;6228044;28;20042;-63
2023/08/15 22:42:00;;;;;;;15.88;14.20;;;;;;;;;;6259918;27;20050;-64
2023/08/15 22:45:03;;;;;;;17.33;14.75;;;;;;;;;;6228024;28;20050;-64
2023/08/15 22:48:05;;;;;;;15.35;13.77;;;;;;;;;;6206583;28;20046;-65
2023/08/15 22:51:07;;;;;;;17.75;14.23;;;;;;;;;;6281494;27;20039;-64
2023/08/15 22:54:09;;;;;;;18.45;15.30;;;;;;;;;;6227331;27;20045;-64
2023/08/15 22:57:12;;;;;;;16.00;14.35;;;;;;;;;;6263110;27;20057;-64
2023/08/15 23:00:14;;;;;;;15.85;13.63;;;;;;;;;;6238825;27;20049;-63
2023/08/15 23:03:16;;;;;;;15.20;11.43;;;;;;;;;;6234458;27;20458;-64
2023/08/15 23:06:18;;;;;;;15.50;13.90;;;;;;;;;;6242859;27;20128;-64
2023/08/15 23:09:20;;;;;;;17.15;15.50;;;;;;;;;;6231247;28;20044;-63
2023/08/15 23:12:22;;;;;;;15.95;14.35;;;;;;;;;;6234924;27;20049;-65
2023/08/15 23:15:24;;;;;;;16.65;15.02;;;;;;;;;;6234468;28;20060;-64
2023/08/15 23:18:26;;;;;;;16.77;15.02;;;;;;;;;;6234092;28;20049;-64
2023/08/15 23:21:28;;;;;;;17.17;14.55;;;;;;;;;;6277841;27;20172;-64
2023/08/15 23:24:31;;;;;;;18.00;14.88;;;;;;;;;;6243033;27;20068;-65
2023/08/15 23:27:33;;;;;;;16.50;14.60;;;;;;;;;;6231802;27;20195;-64
2023/08/15 23:30:35;;;;;;;16.63;14.88;;;;;;;;;;6230612;28;20045;-65
2023/08/15 23:33:38;;;;;;;18.80;14.95;;;;;;;;;;6234445;28;20049;-63
2023/08/15 23:36:40;;;;;;;17.58;15.43;;;;;;;;;;6246047;27;20061;-64
2023/08/15 23:39:42;;;;;;;14.77;13.27;;;;;;;;;;6222946;28;20038;-64
2023/08/15 23:42:44;;;;;;;16.88;15.27;;;;;;;;;;6216328;28;20050;-64
2023/08/15 23:45:50;;;;;;;14.02;10.68;;;;;;;;;;6248148;27;20524;-65
2023/08/15 23:48:52;;;;;;;17.95;16.08;;;;;;;;;;6234621;28;20506;-65
2023/08/15 23:51:54;;;;;;;17.80;14.57;;;;;;;;;;6257945;27;20057;-64
2023/08/15 23:54:56;;;;;;;16.85;14.45;;;;;;;;;;6234591;28;20053;-64
2023/08/15 23:57:58;;;;;;;17.63;15.38;;;;;;;;;;6233996;28;20078;-64
